Time;durP1;ratioP1;P1;durP2;ratioP2;P2;SDS_P1;SDS_P2;PMS_P1;PMS_P2;Temp;Humidity;BMP_temperature;BMP_pressure;BME280_temperature;BME280_humidity;BME280_pressure;Samples;Min_cycle;Max_cycle;Signal;HPM_P1;HPM_P2
2022/07/16 00:02:52;;;;;;;2.05;0.98;;;22.10;52.80;;;;;;4823200;29;20076;-73
2022/07/16 00:05:18;;;;;;;2.92;1.08;;;22.00;52.10;;;;;;4836879;29;20066;-74
2022/07/16 00:07:43;;;;;;;2.22;1.13;;;22.10;52.20;;;;;;4823278;29;20038;-74
2022/07/16 00:10:10;;;;;;;2.92;1.25;;;22.10;52.20;;;;;;4822919;29;20544;-74
2022/07/16 00:12:36;;;;;;;1.88;0.90;;;22.00;52.00;;;;;;4823436;29;20392;-74
2022/07/16 00:15:03;;;;;;;3.92;0.90;;;22.10;52.00;;;;;;4821730;29;20101;-74
2022/07/16 00:17:29;;;;;;;3.25;1.15;;;22.10;52.10;;;;;;4821541;29;20168;-74
2022/07/16 00:19:55;;;;;;;5.30;1.30;;;22.10;52.00;;;;;;4822927;29;20037;-74
2022/07/16 00:22:21;;;;;;;4.75;1.10;;;22.10;52.00;;;;;;4822821;29;20044;-74
2022/07/16 00:24:47;;;;;;;3.55;0.93;;;22.10;52.00;;;;;;4821798;29;20049;-74
2022/07/16 00:27:13;;;;;;;3.05;1.15;;;22.10;51.90;;;;;;4822413;29;20042;-74
2022/07/16 00:29:38;;;;;;;2.45;1.20;;;22.10;52.00;;;;;;4821308;29;20144;-74
2022/07/16 00:32:04;;;;;;;3.22;1.20;;;22.10;52.00;;;;;;4822814;29;20396;-74
2022/07/16 00:34:30;;;;;;;2.75;1.27;;;22.10;51.90;;;;;;4823033;29;20026;-74
2022/07/16 00:36:56;;;;;;;2.05;0.90;;;22.00;51.90;;;;;;4824785;29;20099;-74
2022/07/16 00:39:22;;;;;;;3.13;1.13;;;22.00;51.70;;;;;;4826235;29;20461;-74
2022/07/16 00:41:49;;;;;;;3.05;1.00;;;22.00;51.60;;;;;;4826289;29;20492;-74
2022/07/16 00:44:17;;;;;;;3.72;1.10;;;22.00;51.70;;;;;;4826265;29;20098;-74
2022/07/16 00:46:44;;;;;;;2.08;0.70;;;22.00;51.80;;;;;;4825752;29;20042;-73
2022/07/16 00:49:10;;;;;;;4.03;1.08;;;22.00;51.80;;;;;;4825894;29;20061;-73
2022/07/16 00:51:40;;;;;;;4.90;1.27;;;22.00;51.70;;;;;;4825074;29;20109;-73
2022/07/16 00:54:06;;;;;;;2.05;0.80;;;22.00;51.70;;;;;;4825959;29;20081;-73
2022/07/16 00:56:32;;;;;;;2.92;0.90;;;22.00;51.50;;;;;;4825581;29;20062;-73
2022/07/16 00:58:58;;;;;;;4.40;0.98;;;22.00;51.70;;;;;;4825893;29;20042;-73
2022/07/16 01:01:24;;;;;;;2.78;1.00;;;22.00;51.70;;;;;;4825623;29;20034;-73
2022/07/16 01:03:50;;;;;;;2.13;0.80;;;22.00;51.70;;;;;;4825804;29;20034;-72
2022/07/16 01:06:17;;;;;;;2.17;0.90;;;21.90;51.60;;;;;;4825386;29;20061;-73
2022/07/16 01:08:45;;;;;;;3.35;0.90;;;22.00;51.70;;;;;;4825619;29;20050;-73
2022/07/16 01:11:13;;;;;;;1.98;0.70;;;21.90;52.20;;;;;;4825596;29;20479;-73
2022/07/16 01:13:41;;;;;;;1.73;0.80;;;21.90;51.60;;;;;;4825678;29;20400;-73
2022/07/16 01:16:08;;;;;;;1.77;0.90;;;21.90;51.60;;;;;;4809293;29;20459;-73
2022/07/16 01:18:35;;;;;;;1.85;0.88;;;21.90;52.20;;;;;;4825552;29;20069;-73
2022/07/16 01:21:01;;;;;;;1.88;0.88;;;22.00;51.80;;;;;;4825400;29;20038;-73
2022/07/16 01:23:27;;;;;;;2.58;0.80;;;21.90;51.80;;;;;;4825410;29;20037;-73
2022/07/16 01:25:53;;;;;;;2.58;1.00;;;21.90;51.70;;;;;;4824990;29;20117;-73
2022/07/16 01:28:20;;;;;;;1.83;0.80;;;21.90;51.70;;;;;;4824037;29;20495;-73
2022/07/16 01:30:47;;;;;;;2.00;0.82;;;21.90;51.70;;;;;;4823879;29;20427;-73
2022/07/16 01:33:22;;;;;;;3.42;0.80;;;21.90;51.80;;;;;;4825312;29;20023;-73
2022/07/16 01:35:53;;;;;;;4.10;1.25;;;21.90;51.80;;;;;;4823829;29;20038;-73
2022/07/16 01:38:19;;;;;;;5.25;0.98;;;21.90;51.80;;;;;;4824012;29;20027;-73
2022/07/16 01:40:45;;;;;;;2.28;0.95;;;21.90;51.80;;;;;;4825015;29;20533;-73
2022/07/16 01:43:15;;;;;;;3.80;1.00;;;21.90;51.90;;;;;;4825122;29;20034;-74
2022/07/16 01:45:42;;;;;;;2.45;1.02;;;21.90;51.90;;;;;;4823295;29;20400;-74
2022/07/16 01:48:08;;;;;;;1.65;0.77;;;21.90;51.90;;;;;;4824251;29;20031;-74
2022/07/16 01:50:34;;;;;;;2.95;0.95;;;21.90;51.80;;;;;;4824906;29;20559;-74
2022/07/16 01:53:00;;;;;;;2.15;0.93;;;21.80;51.80;;;;;;4825387;29;20110;-74
2022/07/16 01:55:26;;;;;;;4.85;1.20;;;21.80;51.80;;;;;;4824616;29;20415;-74
2022/07/16 01:57:52;;;;;;;4.13;1.10;;;21.90;51.80;;;;;;4823822;29;20030;-73
2022/07/16 02:00:18;;;;;;;5.88;0.90;;;21.80;51.80;;;;;;4823607;29;20037;-73
2022/07/16 02:02:43;;;;;;;2.20;0.90;;;21.80;51.80;;;;;;4823538;29;20038;-73
2022/07/16 02:05:09;;;;;;;1.65;0.90;;;21.80;51.90;;;;;;4824497;29;20045;-73
2022/07/16 02:07:35;;;;;;;2.65;0.95;;;21.80;51.90;;;;;;4823598;29;20094;-73
2022/07/16 02:10:01;;;;;;;2.78;1.00;;;21.80;51.90;;;;;;4824506;29;20538;-73
2022/07/16 02:12:26;;;;;;;3.55;1.00;;;21.80;51.80;;;;;;4824954;29;20031;-73
2022/07/16 02:14:52;;;;;;;2.00;1.00;;;21.80;51.90;;;;;;4824698;29;20058;-73
2022/07/16 02:17:18;;;;;;;3.50;1.10;;;21.80;51.80;;;;;;4824339;29;20033;-73
2022/07/16 02:19:44;;;;;;;3.60;1.00;;;21.80;51.80;;;;;;4838583;29;20403;-74
2022/07/16 02:22:10;;;;;;;3.40;1.00;;;21.90;51.90;;;;;;4824586;29;20555;-74
2022/07/16 02:24:36;;;;;;;2.92;0.90;;;21.90;51.70;;;;;;4824417;29;20544;-73
2022/07/16 02:27:02;;;;;;;2.30;0.90;;;21.80;51.50;;;;;;4824211;29;20030;-73
2022/07/16 02:29:27;;;;;;;4.70;1.00;;;21.80;51.60;;;;;;4824224;29;20121;-73
2022/07/16 02:31:53;;;;;;;1.52;0.70;;;21.80;51.50;;;;;;4824469;29;20038;-73
2022/07/16 02:34:19;;;;;;;1.25;0.80;;;21.90;51.60;;;;;;4823565;29;20087;-73
2022/07/16 02:36:45;;;;;;;2.10;0.80;;;21.80;51.60;;;;;;4824019;29;20492;-73
2022/07/16 02:39:11;;;;;;;4.53;1.00;;;21.80;51.40;;;;;;4823999;29;20041;-73
2022/07/16 02:41:37;;;;;;;3.53;1.05;;;21.80;51.50;;;;;;4824298;29;20433;-73
2022/07/16 02:44:03;;;;;;;4.00;1.20;;;21.80;51.50;;;;;;4824245;29;20061;-73
2022/07/16 02:46:28;;;;;;;2.72;0.90;;;21.80;51.40;;;;;;4823831;29;20121;-73
2022/07/16 02:48:54;;;;;;;2.67;1.10;;;21.80;51.40;;;;;;4824104;29;20113;-73
2022/07/16 02:51:20;;;;;;;4.60;1.17;;;21.80;51.50;;;;;;4824034;29;20033;-74
2022/07/16 02:53:46;;;;;;;3.17;1.20;;;21.80;51.40;;;;;;4824030;29;20030;-73
2022/07/16 02:56:12;;;;;;;2.30;0.98;;;21.80;51.40;;;;;;4823839;29;20037;-73
2022/07/16 02:58:37;;;;;;;1.92;0.88;;;21.80;51.40;;;;;;4823144;29;20121;-73
2022/07/16 03:01:03;;;;;;;4.53;1.13;;;21.80;51.40;;;;;;4823928;29;20027;-73
2022/07/16 03:03:29;;;;;;;1.70;0.90;;;21.80;51.40;;;;;;4823926;29;20522;-73
2022/07/16 03:05:55;;;;;;;3.17;1.20;;;21.80;51.30;;;;;;4823594;29;20515;-73
2022/07/16 03:08:21;;;;;;;4.10;1.05;;;21.80;51.30;;;;;;4823618;29;20244;-73
2022/07/16 03:10:47;;;;;;;1.75;0.90;;;21.80;51.30;;;;;;4823763;29;20388;-73
2022/07/16 03:13:12;;;;;;;3.20;0.93;;;21.70;51.20;;;;;;4823839;29;20031;-73
2022/07/16 03:15:38;;;;;;;2.53;1.02;;;21.80;51.20;;;;;;4823510;29;20026;-73
2022/07/16 03:18:04;;;;;;;3.47;1.13;;;21.70;51.10;;;;;;4823570;29;20030;-73
2022/07/16 03:20:30;;;;;;;3.35;0.98;;;21.70;51.10;;;;;;4823551;29;20604;-73
2022/07/16 03:22:56;;;;;;;4.10;1.33;;;21.70;51.10;;;;;;4823562;29;20041;-74
2022/07/16 03:25:22;;;;;;;2.38;1.00;;;21.70;51.00;;;;;;4818938;29;20031;-74
2022/07/16 03:27:48;;;;;;;1.27;0.90;;;21.70;51.00;;;;;;4805345;29;20030;-74
2022/07/16 03:30:15;;;;;;;2.75;1.00;;;21.70;51.10;;;;;;4805102;29;20404;-73
2022/07/16 03:32:41;;;;;;;3.38;0.88;;;21.70;51.10;;;;;;4804280;29;20122;-74
2022/07/16 03:35:08;;;;;;;1.23;0.70;;;21.70;51.00;;;;;;4805068;29;20027;-74
2022/07/16 03:38:57;;;;;;;3.20;1.00;;;21.70;51.50;;;;;;4805086;29;20115;-74
2022/07/16 03:40:20;;;;;;;1.73;0.77;;;21.70;50.90;;;;;;4804044;29;20034;-74
2022/07/16 03:42:46;;;;;;;2.95;0.88;;;21.70;51.00;;;;;;4809142;29;20035;-73
2022/07/16 03:45:12;;;;;;;3.10;0.77;;;21.70;51.00;;;;;;4807596;29;20114;-73
2022/07/16 03:47:38;;;;;;;1.20;0.80;;;21.70;51.00;;;;;;4813351;29;20050;-73
2022/07/16 03:50:04;;;;;;;3.97;1.10;;;21.70;51.10;;;;;;4830335;29;20033;-73
2022/07/16 03:52:30;;;;;;;1.52;0.80;;;21.70;51.70;;;;;;4821601;29;20483;-73
2022/07/16 03:54:55;;;;;;;7.50;1.60;;;21.70;51.00;;;;;;4826729;29;20030;-73
2022/07/16 03:57:21;;;;;;;14.50;2.60;;;21.80;51.90;;;;;;4832061;29;20480;-73
2022/07/16 03:59:47;;;;;;;12.65;2.47;;;21.80;51.70;;;;;;4832298;29;20583;-74
2022/07/16 04:02:13;;;;;;;8.98;1.90;;;21.80;51.40;;;;;;4833619;29;20395;-74
2022/07/16 04:04:38;;;;;;;9.13;2.33;;;21.80;51.70;;;;;;4834167;29;20030;-73
2022/07/16 04:07:04;;;;;;;12.43;1.80;;;21.80;51.90;;;;;;4821525;29;20060;-73
2022/07/16 04:09:34;;;;;;;9.90;1.58;;;21.80;52.10;;;;;;4833242;29;20034;-73
2022/07/16 04:12:00;;;;;;;3.45;0.80;;;21.80;51.60;;;;;;4822748;29;20030;-73
2022/07/16 04:14:25;;;;;;;7.60;1.45;;;21.70;51.40;;;;;;4821557;29;20074;-73
2022/07/16 04:16:51;;;;;;;5.75;1.35;;;21.70;51.70;;;;;;4821015;29;20046;-73
2022/07/16 04:19:17;;;;;;;4.68;1.20;;;21.70;51.80;;;;;;4821098;29;20113;-73
2022/07/16 04:21:43;;;;;;;3.58;1.33;;;21.70;51.90;;;;;;4821008;29;20440;-73
2022/07/16 04:24:09;;;;;;;4.47;1.02;;;21.70;52.00;;;;;;4821247;29;20038;-73
2022/07/16 04:26:34;;;;;;;4.10;1.60;;;21.70;52.10;;;;;;4850444;29;20115;-73
2022/07/16 04:29:00;;;;;;;2.15;1.10;;;21.60;52.20;;;;;;4821987;29;20041;-73
2022/07/16 04:31:26;;;;;;;6.22;1.27;;;21.70;52.40;;;;;;4856070;23;20049;-72
2022/07/16 04:33:52;;;;;;;3.42;1.35;;;21.60;52.30;;;;;;4871475;29;20072;-73
2022/07/16 04:36:18;;;;;;;6.30;1.50;;;21.60;52.30;;;;;;4859002;29;20105;-72
2022/07/16 04:38:44;;;;;;;6.15;2.38;;;21.60;52.30;;;;;;4859496;29;20506;-72
2022/07/16 04:41:10;;;;;;;7.68;2.45;;;21.60;52.20;;;;;;4858079;29;20041;-72
2022/07/16 04:43:35;;;;;;;8.90;2.60;;;21.60;52.30;;;;;;4859361;29;20036;-72
2022/07/16 04:46:01;;;;;;;3.80;2.03;;;21.60;52.20;;;;;;4873317;29;20033;-72
2022/07/16 04:48:27;;;;;;;4.78;1.73;;;21.60;52.10;;;;;;4857990;29;20040;-72
2022/07/16 04:50:53;;;;;;;2.78;1.40;;;21.60;52.00;;;;;;4859191;29;20033;-72
2022/07/16 04:53:19;;;;;;;4.30;1.85;;;21.60;52.00;;;;;;4857990;29;20033;-72
2022/07/16 04:55:44;;;;;;;5.40;1.60;;;21.60;51.80;;;;;;4858923;29;20515;-72
2022/07/16 04:58:10;;;;;;;3.40;1.42;;;21.60;51.80;;;;;;4859345;29;20037;-72
2022/07/16 05:00:36;;;;;;;5.00;1.60;;;21.60;51.60;;;;;;4873591;29;20045;-72
2022/07/16 05:03:02;;;;;;;3.17;1.33;;;21.60;51.60;;;;;;4873361;29;20052;-73
2022/07/16 05:05:36;;;;;;;2.67;1.25;;;21.60;51.50;;;;;;4858763;29;20473;-72
2022/07/16 05:08:04;;;;;;;2.65;1.00;;;21.60;51.40;;;;;;4859142;29;20440;-73
2022/07/16 05:10:30;;;;;;;3.33;1.20;;;21.60;51.40;;;;;;4858922;29;20034;-72
2022/07/16 05:12:57;;;;;;;1.90;0.90;;;21.60;51.30;;;;;;4859108;29;20072;-72
2022/07/16 05:15:24;;;;;;;3.65;1.02;;;21.50;51.20;;;;;;4858656;29;20562;-72
2022/07/16 05:17:50;;;;;;;3.67;1.17;;;21.50;51.10;;;;;;4858998;29;20392;-73
2022/07/16 05:20:16;;;;;;;2.92;0.90;;;21.60;51.10;;;;;;4858968;29;20044;-73
2022/07/16 05:22:42;;;;;;;3.97;1.42;;;21.50;51.10;;;;;;4876476;29;20483;-73
2022/07/16 05:25:09;;;;;;;3.45;1.48;;;21.60;51.00;;;;;;4862170;29;20045;-73
2022/07/16 05:27:35;;;;;;;5.22;1.50;;;21.50;50.90;;;;;;4862266;29;20037;-73
2022/07/16 05:30:02;;;;;;;2.88;1.13;;;21.50;50.90;;;;;;4876168;29;20037;-73
2022/07/16 05:32:28;;;;;;;5.85;1.00;;;21.50;50.80;;;;;;4862179;29;20479;-73
2022/07/16 05:34:54;;;;;;;2.97;0.98;;;21.50;50.90;;;;;;4876318;29;20042;-73
2022/07/16 05:37:20;;;;;;;4.60;1.30;;;21.50;50.80;;;;;;4876005;29;20064;-74
2022/07/16 05:39:46;;;;;;;3.97;1.15;;;21.50;50.90;;;;;;4861935;29;20122;-73
2022/07/16 05:42:12;;;;;;;3.78;1.48;;;21.60;50.90;;;;;;4862151;29;20113;-73
2022/07/16 05:44:38;;;;;;;5.30;1.20;;;21.50;50.90;;;;;;4861849;29;20057;-73
2022/07/16 05:47:04;;;;;;;4.82;1.10;;;21.50;50.90;;;;;;4861685;29;20502;-74
2022/07/16 05:49:30;;;;;;;2.88;1.17;;;21.50;51.00;;;;;;4861714;29;20116;-74
2022/07/16 05:51:56;;;;;;;2.78;1.10;;;21.60;51.10;;;;;;4860651;29;20061;-74
2022/07/16 05:54:22;;;;;;;2.65;1.05;;;21.50;51.10;;;;;;4860591;29;20443;-74
2022/07/16 05:56:48;;;;;;;3.47;1.20;;;21.50;51.10;;;;;;4861415;29;20068;-74
2022/07/16 05:59:15;;;;;;;5.97;1.17;;;21.50;51.10;;;;;;4861711;29;20057;-74
2022/07/16 06:01:41;;;;;;;4.97;1.10;;;21.60;51.20;;;;;;4861707;29;20156;-74
2022/07/16 06:04:07;;;;;;;5.03;1.33;;;21.50;51.20;;;;;;4861663;29;20041;-75
2022/07/16 06:06:33;;;;;;;3.42;1.20;;;21.50;51.30;;;;;;4875757;29;20036;-74
2022/07/16 06:08:58;;;;;;;2.50;1.23;;;21.50;51.30;;;;;;4861519;29;20082;-74
2022/07/16 06:11:24;;;;;;;4.35;1.10;;;21.50;51.40;;;;;;4861483;29;20025;-74
2022/07/16 06:13:50;;;;;;;5.10;2.17;;;21.50;51.60;;;;;;4861845;29;20030;-74
2022/07/16 06:16:16;;;;;;;7.53;2.25;;;21.50;51.90;;;;;;4861179;29;20439;-74
2022/07/16 06:18:42;;;;;;;6.85;2.22;;;21.50;52.40;;;;;;4875638;29;20116;-74
2022/07/16 06:21:08;;;;;;;4.95;1.90;;;21.50;52.70;;;;;;4860158;29;20041;-74
2022/07/16 06:23:33;;;;;;;9.18;2.70;;;21.50;53.10;;;;;;4861397;29;20088;-74
2022/07/16 06:25:59;;;;;;;9.02;3.80;;;21.50;53.50;;;;;;4861002;29;20030;-74
2022/07/16 06:28:25;;;;;;;4.90;2.30;;;21.50;53.90;;;;;;4861029;29;20112;-74
2022/07/16 06:30:51;;;;;;;8.60;3.67;;;21.50;54.10;;;;;;4875165;29;20041;-73
2022/07/16 06:33:17;;;;;;;6.25;2.65;;;21.50;54.50;;;;;;4861001;29;20073;-73
2022/07/16 06:35:43;;;;;;;5.97;2.60;;;21.50;54.80;;;;;;4861066;29;20030;-73
2022/07/16 06:38:08;;;;;;;4.95;2.15;;;21.50;55.10;;;;;;4861066;29;20033;-74
2022/07/16 06:40:34;;;;;;;5.57;1.70;;;21.50;55.40;;;;;;4860878;29;20045;-73
2022/07/16 06:43:00;;;;;;;6.05;2.00;;;21.50;55.60;;;;;;4861046;29;20112;-73
2022/07/16 06:45:26;;;;;;;8.20;1.80;;;21.60;55.80;;;;;;4859321;29;20047;-73
2022/07/16 06:47:52;;;;;;;6.43;1.63;;;21.50;56.10;;;;;;4859625;29;20040;-73
2022/07/16 06:50:18;;;;;;;10.10;1.75;;;21.50;56.40;;;;;;4860664;29;20485;-73
2022/07/16 06:52:44;;;;;;;7.35;1.42;;;21.50;56.70;;;;;;4859586;29;20025;-73
2022/07/16 06:55:10;;;;;;;3.60;1.70;;;21.50;56.90;;;;;;4860324;29;20053;-73
2022/07/16 06:57:35;;;;;;;4.18;1.25;;;21.50;57.10;;;;;;4860633;29;20061;-73
2022/07/16 07:00:02;;;;;;;4.72;1.58;;;21.50;57.20;;;;;;4860637;29;20559;-73
2022/07/16 07:02:27;;;;;;;5.55;1.50;;;21.50;57.40;;;;;;4860680;29;20039;-73
2022/07/16 07:04:53;;;;;;;5.00;1.50;;;21.50;57.50;;;;;;4860941;29;20140;-73
2022/07/16 07:07:19;;;;;;;4.72;1.75;;;21.50;57.70;;;;;;4874507;29;20402;-73
2022/07/16 07:09:45;;;;;;;4.80;1.50;;;21.50;58.10;;;;;;4860575;29;20061;-73
2022/07/16 07:12:10;;;;;;;4.60;1.35;;;21.50;58.20;;;;;;4860284;29;20387;-73
2022/07/16 07:14:36;;;;;;;3.40;1.42;;;21.50;58.50;;;;;;4859159;29;20061;-73
2022/07/16 07:17:02;;;;;;;2.70;1.20;;;21.50;58.50;;;;;;4860053;29;20490;-73
2022/07/16 07:19:28;;;;;;;2.72;1.38;;;21.50;58.70;;;;;;4860106;29;20037;-74
2022/07/16 07:21:54;;;;;;;4.63;1.50;;;21.50;58.60;;;;;;4828469;29;20093;-73
2022/07/16 07:24:20;;;;;;;2.80;1.27;;;21.50;58.80;;;;;;4874600;29;20033;-73
2022/07/16 07:26:50;;;;;;;5.38;1.45;;;21.50;58.90;;;;;;4858888;29;20039;-73
2022/07/16 07:29:16;;;;;;;4.47;1.55;;;21.50;59.10;;;;;;4874363;29;20042;-73
2022/07/16 07:31:43;;;;;;;3.50;1.50;;;21.50;59.20;;;;;;4859985;29;20037;-73
2022/07/16 07:34:09;;;;;;;3.20;1.50;;;21.60;59.20;;;;;;4858894;29;20025;-73
2022/07/16 07:36:35;;;;;;;7.40;2.05;;;21.50;59.30;;;;;;4859630;29;20029;-74
2022/07/16 07:39:01;;;;;;;3.17;1.90;;;21.50;59.50;;;;;;4843431;29;20048;-73
2022/07/16 07:41:29;;;;;;;4.30;1.80;;;21.60;59.70;;;;;;4860017;29;20426;-73
2022/07/16 07:43:55;;;;;;;5.65;1.98;;;21.50;59.70;;;;;;4859710;29;20033;-73
2022/07/16 07:46:24;;;;;;;3.28;1.50;;;21.60;59.60;;;;;;4859572;29;20550;-73
2022/07/16 07:48:50;;;;;;;6.43;1.88;;;21.50;59.60;;;;;;4859772;29;20402;-74
2022/07/16 07:51:16;;;;;;;3.88;1.70;;;21.50;59.80;;;;;;4859759;29;20037;-74
2022/07/16 07:53:45;;;;;;;2.80;1.50;;;21.60;59.70;;;;;;4858690;29;20073;-74
2022/07/16 07:56:13;;;;;;;6.57;2.03;;;21.60;59.70;;;;;;4873780;29;20033;-73
2022/07/16 07:58:46;;;;;;;4.05;1.95;;;21.60;59.70;;;;;;4859886;29;20045;-73
2022/07/16 08:01:14;;;;;;;3.47;1.67;;;21.60;59.60;;;;;;4859596;29;20116;-73
2022/07/16 08:03:40;;;;;;;3.70;1.45;;;21.60;59.70;;;;;;4859735;29;20029;-72
2022/07/16 08:06:05;;;;;;;6.07;1.25;;;21.60;59.70;;;;;;4859342;29;20510;-73
2022/07/16 08:08:31;;;;;;;3.42;1.40;;;21.70;59.60;;;;;;4873835;29;20086;-73
2022/07/16 08:10:57;;;;;;;3.58;1.48;;;21.70;59.60;;;;;;4859624;29;20033;-73
2022/07/16 08:13:23;;;;;;;4.40;1.60;;;21.70;59.60;;;;;;4859610;29;20440;-73
2022/07/16 08:15:49;;;;;;;5.97;2.05;;;21.70;59.70;;;;;;4859226;29;20044;-72
2022/07/16 08:18:14;;;;;;;3.88;1.90;;;21.70;59.40;;;;;;4858503;29;20053;-73
2022/07/16 08:20:40;;;;;;;4.70;2.10;;;21.70;59.50;;;;;;4859492;29;20049;-72
2022/07/16 08:23:06;;;;;;;8.20;2.75;;;21.80;59.80;;;;;;4859479;29;20041;-72
2022/07/16 08:25:44;;;;;;;5.13;2.17;;;21.70;59.60;;;;;;4859118;29;20030;-73
2022/07/16 08:28:10;;;;;;;5.45;2.38;;;21.70;59.20;;;;;;4859657;29;20078;-74
2022/07/16 08:30:36;;;;;;;5.75;2.25;;;21.70;59.20;;;;;;4873596;29;20395;-73
2022/07/16 08:33:02;;;;;;;3.22;1.90;;;21.70;59.20;;;;;;4859479;29;20033;-73
2022/07/16 08:35:28;;;;;;;4.90;2.13;;;21.70;59.10;;;;;;4859558;29;20034;-73
2022/07/16 08:37:54;;;;;;;4.75;2.47;;;21.70;59.10;;;;;;4859583;29;20037;-74
2022/07/16 08:40:23;;;;;;;3.47;1.90;;;21.70;59.00;;;;;;4859381;29;20041;-74
2022/07/16 08:42:50;;;;;;;3.83;2.05;;;21.70;59.40;;;;;;4859326;29;20025;-74
2022/07/16 08:45:18;;;;;;;4.75;1.95;;;21.80;58.90;;;;;;4859071;29;20033;-74
2022/07/16 08:47:44;;;;;;;4.03;1.88;;;21.80;58.70;;;;;;4859346;29;20116;-74
2022/07/16 08:50:13;;;;;;;2.95;1.50;;;21.80;58.50;;;;;;4859117;29;20505;-75
2022/07/16 08:52:42;;;;;;;3.25;1.55;;;21.80;58.20;;;;;;4859311;29;20479;-75
2022/07/16 08:55:08;;;;;;;3.60;1.50;;;21.80;58.10;;;;;;4858968;29;20026;-75
2022/07/16 08:57:39;;;;;;;3.05;1.50;;;21.80;57.80;;;;;;4861410;29;20428;-76
2022/07/16 09:00:10;;;;;;;4.32;2.20;;;21.90;57.70;;;;;;4863056;29;20045;-75
2022/07/16 09:02:36;;;;;;;3.28;1.70;;;21.90;58.00;;;;;;4862775;29;20030;-75
2022/07/16 09:05:03;;;;;;;2.97;1.70;;;21.90;58.10;;;;;;4862522;29;20034;-74
2022/07/16 09:07:29;;;;;;;4.00;1.67;;;21.90;57.90;;;;;;4861220;29;20040;-74
2022/07/16 09:09:55;;;;;;;2.78;1.58;;;21.90;57.80;;;;;;4862403;29;20372;-73
2022/07/16 09:12:42;;;;;;;1.95;1.38;;;21.90;57.90;;;;;;4876783;29;20033;-74
2022/07/16 09:15:29;;;;;;;5.53;1.90;;;21.90;57.50;;;;;;4861996;29;20061;-75
2022/07/16 09:18:18;;;;;;;3.55;1.73;;;21.90;57.30;;;;;;4862394;29;20026;-73
2022/07/16 09:20:47;;;;;;;4.28;1.98;;;21.80;57.00;;;;;;4845800;29;20396;-74
2022/07/16 09:23:17;;;;;;;3.05;1.63;;;21.90;57.10;;;;;;4876904;29;20036;-75
2022/07/16 09:25:47;;;;;;;3.63;1.45;;;21.90;57.20;;;;;;4876800;29;20120;-74
2022/07/16 09:28:13;;;;;;;2.03;1.50;;;21.90;57.10;;;;;;4862265;29;20044;-75
2022/07/16 09:30:39;;;;;;;3.95;1.55;;;21.90;57.10;;;;;;4860893;29;20116;-76
2022/07/16 09:33:19;;;;;;;3.03;1.33;;;21.90;57.20;;;;;;4862432;29;20471;-74
2022/07/16 09:35:47;;;;;;;3.05;1.30;;;21.90;56.80;;;;;;4861807;29;20030;-75
2022/07/16 09:38:13;;;;;;;3.72;1.60;;;21.90;56.10;;;;;;4862328;29;20041;-75
2022/07/16 09:40:47;;;;;;;4.38;1.50;;;21.90;56.20;;;;;;4861969;29;20033;-75
2022/07/16 09:43:15;;;;;;;3.08;1.50;;;21.90;56.00;;;;;;4861992;29;20029;-75
2022/07/16 09:46:02;;;;;;;5.97;1.27;;;21.90;56.20;;;;;;4862009;29;20394;-76
2022/07/16 09:48:30;;;;;;;5.22;1.70;;;22.00;56.00;;;;;;4861623;29;20042;-76
2022/07/16 09:51:11;;;;;;;3.35;1.60;;;22.00;55.70;;;;;;4861836;29;20525;-74
2022/07/16 09:53:43;;;;;;;4.53;1.48;;;22.00;56.00;;;;;;4876169;29;20081;-74
2022/07/16 09:56:12;;;;;;;6.60;1.60;;;22.00;56.00;;;;;;4861670;29;20124;-74
2022/07/16 09:58:38;;;;;;;3.78;1.60;;;22.00;55.50;;;;;;4860547;29;20443;-74
2022/07/16 10:01:06;;;;;;;3.38;1.70;;;22.10;56.30;;;;;;4860688;29;20681;-74
2022/07/16 10:03:32;;;;;;;16.40;4.93;;;22.10;56.70;;;;;;4876059;29;20034;-74
2022/07/16 10:05:58;;;;;;;16.45;4.25;;;22.20;58.30;;;;;;4861181;29;20062;-74
2022/07/16 10:08:24;;;;;;;19.00;6.30;;;22.20;56.80;;;;;;4859916;29;20045;-74
2022/07/16 10:10:51;;;;;;;21.00;5.68;;;22.20;57.70;;;;;;4861348;29;20036;-73
2022/07/16 10:13:25;;;;;;;42.50;11.02;;;22.30;56.50;;;;;;4861353;29;20030;-74
2022/07/16 10:15:50;;;;;;;34.08;7.72;;;22.30;57.30;;;;;;4861260;29;20026;-72
2022/07/16 10:18:46;;;;;;;49.08;13.05;;;22.30;55.90;;;;;;4861457;29;20085;-73
2022/07/16 10:21:21;;;;;;;42.13;11.52;;;22.30;57.40;;;;;;4849486;29;20052;-73
2022/07/16 10:23:49;;;;;;;37.80;11.45;;;22.30;57.20;;;;;;4861273;29;20116;-74
2022/07/16 10:26:18;;;;;;;33.80;10.50;;;22.30;57.10;;;;;;4861249;29;20113;-74
2022/07/16 10:28:54;;;;;;;36.00;9.23;;;22.30;56.80;;;;;;4861078;29;20089;-74
2022/07/16 10:31:40;;;;;;;25.25;6.45;;;22.20;56.80;;;;;;4861015;29;20040;-78
2022/07/16 10:34:14;;;;;;;25.25;5.68;;;22.20;55.00;;;;;;4860986;29;20030;-77
2022/07/16 10:36:58;;;;;;;30.50;4.82;;;22.20;54.90;;;;;;4860763;29;20113;-83
2022/07/16 10:39:26;;;;;;;19.58;4.68;;;22.30;54.30;;;;;;4860967;29;20037;-78
2022/07/16 10:42:04;;;;;;;17.73;5.32;;;22.30;54.80;;;;;;4860831;29;20061;-79
2022/07/16 10:44:45;;;;;;;20.80;4.68;;;22.30;54.70;;;;;;4875190;29;20085;-78
2022/07/16 10:47:12;;;;;;;17.88;4.18;;;22.30;55.30;;;;;;4859275;29;20029;-78
2022/07/16 10:49:38;;;;;;;21.17;3.78;;;22.30;54.90;;;;;;4875210;29;20029;-78
2022/07/16 10:52:10;;;;;;;23.95;4.63;;;22.30;55.10;;;;;;4860718;29;20040;-79
2022/07/16 10:54:37;;;;;;;15.18;3.80;;;22.30;56.20;;;;;;4860807;29;20032;-78
2022/07/16 10:57:08;;;;;;;21.00;4.45;;;22.30;56.70;;;;;;4860859;29;20025;-77
2022/07/16 10:59:40;;;;;;;23.17;6.38;;;22.30;61.00;;;;;;4859513;29;20033;-77
2022/07/16 11:02:11;;;;;;;75.85;19.63;;;22.30;58.80;;;;;;4859549;29;20117;-78
2022/07/16 11:04:42;;;;;;;57.15;13.65;;;22.30;63.40;;;;;;4844342;29;20038;-78
2022/07/16 11:07:19;;;;;;;37.70;10.43;;;22.30;61.60;;;;;;4859393;29;20475;-77
2022/07/16 11:09:50;;;;;;;21.52;5.57;;;22.20;59.70;;;;;;4860655;29;20033;-78
2022/07/16 11:12:22;;;;;;;17.50;4.80;;;22.20;58.50;;;;;;4859866;29;20036;-78
2022/07/16 11:14:49;;;;;;;23.35;4.88;;;22.20;58.50;;;;;;4844209;29;20061;-78
2022/07/16 11:17:18;;;;;;;36.35;7.55;;;22.20;58.50;;;;;;4860224;29;20036;-79
2022/07/16 11:19:49;;;;;;;31.25;8.02;;;22.20;58.80;;;;;;4874115;29;20133;-76
2022/07/16 11:22:17;;;;;;;32.20;6.82;;;22.20;60.10;;;;;;4859015;29;20045;-78
2022/07/16 11:24:48;;;;;;;30.73;6.65;;;22.20;59.60;;;;;;4860195;29;20033;-76
2022/07/16 11:27:14;;;;;;;23.90;5.88;;;22.20;59.80;;;;;;4858063;29;20039;-76
2022/07/16 11:29:40;;;;;;;26.15;6.15;;;22.20;58.30;;;;;;4858578;29;20444;-76
2022/07/16 11:32:06;;;;;;;21.08;5.80;;;22.20;59.40;;;;;;4870355;29;20037;-76
2022/07/16 11:34:34;;;;;;;27.33;6.25;;;22.30;59.60;;;;;;4863996;29;20491;-78
2022/07/16 11:37:00;;;;;;;24.98;6.47;;;22.20;59.00;;;;;;4858519;29;20032;-77
2022/07/16 11:39:28;;;;;;;28.17;6.47;;;22.20;59.80;;;;;;4857661;29;20398;-77
2022/07/16 11:41:56;;;;;;;24.98;5.85;;;22.20;60.00;;;;;;4858780;29;20026;-77
2022/07/16 11:44:27;;;;;;;26.63;5.15;;;22.20;60.30;;;;;;4858727;29;20116;-77
2022/07/16 11:47:00;;;;;;;23.15;5.57;;;22.20;60.00;;;;;;4857246;29;20125;-77
2022/07/16 11:49:30;;;;;;;21.20;5.40;;;22.20;60.40;;;;;;4857878;29;20069;-77
2022/07/16 11:52:01;;;;;;;22.92;5.63;;;22.20;59.90;;;;;;4858930;29;20065;-75
2022/07/16 11:54:28;;;;;;;29.73;5.47;;;22.20;59.90;;;;;;4858919;29;20029;-76
2022/07/16 11:56:55;;;;;;;17.85;4.97;;;22.20;60.00;;;;;;4858586;29;20038;-77
2022/07/16 11:59:27;;;;;;;20.98;5.28;;;22.20;59.80;;;;;;4859763;29;20085;-77
2022/07/16 12:02:00;;;;;;;22.95;5.35;;;22.20;59.60;;;;;;4858625;29;20073;-77
2022/07/16 12:04:41;;;;;;;24.85;5.90;;;22.20;59.60;;;;;;4858583;29;20026;-77
2022/07/16 12:07:15;;;;;;;23.30;4.80;;;22.20;59.00;;;;;;4859437;29;20491;-77
2022/07/16 12:09:47;;;;;;;20.23;5.03;;;22.10;59.40;;;;;;4859539;29;20038;-75
2022/07/16 12:12:14;;;;;;;18.40;4.78;;;22.20;59.40;;;;;;4843335;29;20593;-76
2022/07/16 12:14:56;;;;;;;18.63;4.82;;;22.20;59.10;;;;;;4859718;29;20025;-76
2022/07/16 12:17:31;;;;;;;15.88;4.35;;;22.10;59.00;;;;;;4858192;29;20474;-76
2022/07/16 12:20:07;;;;;;;18.10;4.65;;;22.10;59.20;;;;;;4859570;29;20060;-75
2022/07/16 12:22:44;;;;;;;19.45;5.10;;;22.10;59.00;;;;;;4858295;29;20044;-76
2022/07/16 12:25:21;;;;;;;15.82;4.60;;;22.10;59.10;;;;;;4857905;29;20035;-76
2022/07/16 12:27:52;;;;;;;18.00;4.35;;;22.10;59.20;;;;;;4858478;29;20065;-77
2022/07/16 12:30:28;;;;;;;18.98;4.97;;;22.10;59.10;;;;;;4860761;29;20085;-77
2022/07/16 12:32:54;;;;;;;18.65;4.30;;;22.10;59.00;;;;;;4863069;29;20443;-77
2022/07/16 12:35:43;;;;;;;17.80;4.72;;;22.10;59.00;;;;;;4863054;29;20109;-77
2022/07/16 12:38:53;;;;;;;12.75;4.05;;;22.10;59.10;;;;;;4862017;29;20040;-77
2022/07/16 12:41:43;;;;;;;14.32;4.00;;;22.10;58.90;;;;;;4862910;29;20040;-77
2022/07/16 12:44:14;;;;;;;14.45;4.32;;;22.10;58.70;;;;;;4863072;29;20447;-77
2022/07/16 12:46:51;;;;;;;18.75;4.70;;;22.10;58.80;;;;;;4862680;29;20037;-75
2022/07/16 12:49:20;;;;;;;15.50;4.22;;;22.10;59.00;;;;;;4862860;29;20089;-76